createdAt,value
2019-03-19T00:00:16.916Z,4.20
2019-03-19T00:02:46.196Z,4.20
2019-03-19T00:05:14.882Z,4.10
2019-03-19T00:07:43.919Z,4.10
2019-03-19T00:10:13.441Z,4.00
2019-03-19T00:12:42.243Z,4.00
2019-03-19T00:15:12.004Z,3.90
2019-03-19T00:17:40.928Z,3.80
2019-03-19T00:20:12.848Z,3.70
2019-03-19T00:22:41.891Z,3.60
2019-03-19T00:25:11.530Z,3.60
2019-03-19T00:27:40.693Z,3.50
2019-03-19T00:30:17.174Z,3.40
2019-03-19T00:32:46.585Z,3.40
2019-03-19T00:35:15.617Z,3.30
2019-03-19T00:37:44.901Z,3.30
2019-03-19T00:40:15.025Z,3.20
2019-03-19T00:42:43.945Z,3.20
2019-03-19T00:45:14.445Z,3.20
2019-03-19T00:47:43.707Z,3.20
2019-03-19T00:50:13.582Z,3.20
2019-03-19T00:52:42.515Z,3.20
2019-03-19T00:55:11.912Z,3.10
2019-03-19T00:57:40.835Z,3.10
2019-03-19T01:00:12.632Z,3.00
2019-03-19T01:02:41.565Z,3.00
2019-03-19T01:05:10.719Z,3.00
2019-03-19T01:07:39.639Z,3.00
2019-03-19T01:10:13.719Z,2.90
2019-03-19T01:12:42.638Z,2.90
2019-03-19T01:15:12.886Z,2.90
2019-03-19T01:17:41.806Z,2.90
2019-03-19T01:20:13.258Z,2.90
2019-03-19T01:22:42.292Z,3.00
2019-03-19T01:25:11.806Z,2.90
2019-03-19T01:27:41.098Z,2.90
2019-03-19T01:30:13.129Z,2.90
2019-03-19T01:32:42.054Z,2.90
2019-03-19T01:35:10.881Z,2.80
2019-03-19T01:37:40.026Z,2.80
2019-03-19T01:40:10.975Z,2.70
2019-03-19T01:42:39.903Z,2.70
2019-03-19T01:45:10.625Z,2.70
2019-03-19T01:47:39.659Z,2.70
2019-03-19T01:50:16.032Z,2.70
2019-03-19T01:52:45.302Z,2.60
2019-03-19T01:55:14.950Z,2.60
2019-03-19T01:57:44.226Z,2.60
2019-03-19T02:00:15.429Z,2.50
2019-03-19T02:02:44.594Z,2.50
2019-03-19T02:05:13.632Z,2.50
2019-03-19T02:07:42.677Z,2.50
2019-03-19T02:10:13.755Z,2.50
2019-03-19T02:12:43.111Z,2.60
2019-03-19T02:15:14.246Z,2.50
2019-03-19T02:17:43.402Z,2.60
2019-03-19T02:20:14.240Z,2.50
2019-03-19T02:22:43.402Z,2.50
2019-03-19T02:25:12.447Z,2.50
2019-03-19T02:27:41.492Z,2.50
2019-03-19T02:30:14.880Z,2.50
2019-03-19T02:32:44.055Z,2.50
2019-03-19T02:35:13.179Z,2.40
2019-03-19T02:37:42.578Z,2.40
2019-03-19T03:10:38.023Z,2.10
2019-03-19T03:13:06.837Z,2.00
2019-03-19T03:15:35.389Z,2.10
2019-03-19T03:18:04.515Z,2.10
2019-03-19T03:20:33.193Z,2.10
2019-03-19T03:23:01.771Z,2.10
2019-03-19T03:25:30.512Z,2.10
2019-03-19T03:27:59.288Z,2.20
2019-03-19T03:30:27.915Z,2.20
2019-03-19T03:32:56.582Z,2.20
2019-03-19T03:35:25.201Z,2.20
2019-03-19T03:37:53.788Z,2.10
2019-03-19T03:40:22.358Z,2.10
2019-03-19T03:42:51.043Z,2.10
2019-03-19T03:45:20.757Z,2.10
2019-03-19T03:47:49.475Z,2.10
2019-03-19T03:50:18.699Z,2.10
2019-03-19T03:52:47.394Z,2.00
2019-03-19T03:55:17.009Z,2.00
2019-03-19T03:57:45.723Z,2.00
2019-03-19T04:00:26.236Z,2.00
2019-03-19T04:02:54.884Z,2.10
2019-03-19T04:05:23.694Z,2.10
2019-03-19T04:07:52.312Z,2.00
2019-03-19T04:10:20.962Z,2.00
2019-03-19T04:12:49.741Z,2.00
2019-03-19T04:15:19.067Z,2.00
2019-03-19T04:17:47.706Z,2.00
2019-03-19T04:20:17.474Z,2.00
2019-03-19T04:22:46.186Z,2.10
2019-03-19T04:25:15.397Z,2.00
2019-03-19T04:27:44.053Z,2.00
2019-03-19T04:30:20.375Z,2.10
2019-03-19T04:32:49.023Z,2.10
2019-03-19T04:35:17.743Z,2.10
2019-03-19T04:37:46.300Z,2.00
2019-03-19T04:40:16.011Z,2.00
2019-03-19T04:42:45.223Z,2.00
2019-03-19T04:45:17.678Z,2.00
2019-03-19T04:47:46.475Z,2.00
2019-03-19T04:50:16.010Z,2.00
2019-03-19T04:52:44.755Z,1.90
2019-03-19T04:55:19.224Z,1.90
2019-03-19T04:57:47.823Z,1.90
2019-03-19T05:00:17.340Z,1.90
2019-03-19T05:02:46.020Z,1.90
2019-03-19T05:05:14.735Z,1.90
2019-03-19T05:07:43.373Z,1.90
2019-03-19T05:10:14.166Z,1.90
2019-03-19T05:12:42.899Z,1.90
2019-03-19T05:15:11.796Z,1.90
2019-03-19T05:17:40.710Z,1.90
2019-03-19T05:20:14.359Z,1.90
2019-03-19T05:22:43.123Z,2.00
2019-03-19T05:25:12.133Z,2.00
2019-03-19T05:27:40.868Z,2.00
2019-03-19T05:30:14.439Z,2.00
2019-03-19T05:32:43.135Z,1.90
2019-03-19T05:35:11.717Z,1.90
2019-03-19T05:37:40.359Z,1.90
2019-03-19T05:40:13.963Z,1.90
2019-03-19T05:42:42.819Z,1.90
2019-03-19T05:45:12.722Z,1.90
2019-03-19T05:47:41.448Z,1.80
2019-03-19T05:50:15.750Z,1.80
2019-03-19T05:52:44.478Z,1.80
2019-03-19T05:55:13.191Z,1.80
2019-03-19T05:57:49.613Z,1.80
2019-03-19T06:00:20.439Z,1.80
2019-03-19T06:02:49.089Z,1.80
2019-03-19T06:05:17.965Z,1.80
2019-03-19T06:07:46.602Z,1.80
2019-03-19T06:10:15.587Z,1.80
2019-03-19T06:12:44.206Z,1.80
2019-03-19T06:15:14.325Z,1.80
2019-03-19T06:17:43.054Z,1.80
2019-03-19T06:20:19.539Z,1.90
2019-03-19T06:22:48.257Z,2.00
2019-03-19T06:25:17.257Z,2.10
2019-03-19T06:27:45.960Z,2.10
2019-03-19T06:30:19.495Z,2.10
2019-03-19T06:32:48.129Z,2.10
2019-03-19T06:35:17.457Z,2.10
2019-03-19T06:37:46.164Z,2.10
2019-03-19T06:40:15.956Z,2.20
2019-03-19T06:42:44.615Z,2.20
2019-03-19T06:45:14.723Z,2.30
2019-03-19T06:47:43.625Z,2.30
2019-03-19T06:50:15.995Z,2.40
2019-03-19T06:52:44.826Z,2.40
2019-03-19T06:55:14.660Z,2.50
2019-03-19T06:57:43.353Z,2.60
2019-03-19T07:00:17.733Z,2.60
2019-03-19T07:02:46.357Z,2.70
2019-03-19T07:05:16.518Z,2.80
2019-03-19T07:07:45.180Z,3.00
2019-03-19T07:10:15.114Z,3.10
2019-03-19T07:12:43.710Z,3.20
2019-03-19T07:15:17.164Z,3.30
2019-03-19T07:17:45.853Z,3.40
2019-03-19T07:20:22.991Z,3.60
2019-03-19T07:22:51.740Z,4.00
2019-03-19T07:25:20.379Z,4.60
2019-03-19T07:27:48.959Z,5.10
2019-03-19T07:30:27.425Z,5.60
2019-03-19T07:32:56.127Z,6.00
2019-03-19T07:35:24.772Z,6.50
2019-03-19T07:37:53.412Z,7.10
2019-03-19T07:40:22.261Z,7.50
2019-03-19T07:42:50.920Z,7.80
2019-03-19T07:45:21.905Z,8.10
2019-03-19T07:47:51.311Z,8.50
2019-03-19T07:50:22.995Z,8.90
2019-03-19T07:52:50.837Z,9.20
2019-03-19T07:55:19.497Z,9.30
2019-03-19T07:57:48.112Z,9.50
2019-03-19T08:00:21.293Z,9.90
2019-03-19T08:02:50.106Z,10.00
2019-03-19T08:05:18.797Z,10.20
2019-03-19T08:07:47.537Z,10.60
2019-03-19T08:10:20.039Z,11.10
2019-03-19T08:12:48.736Z,11.40
2019-03-19T08:15:21.129Z,11.80
2019-03-19T08:17:49.887Z,12.10
2019-03-19T08:20:18.880Z,12.40
2019-03-19T08:22:47.596Z,12.70
2019-03-19T08:25:17.019Z,12.80
2019-03-19T08:27:45.742Z,13.00
2019-03-19T08:30:24.521Z,13.20
2019-03-19T08:32:52.825Z,13.50
2019-03-19T08:35:21.456Z,13.60
2019-03-19T08:37:50.296Z,13.70
2019-03-19T08:40:19.455Z,13.90
2019-03-19T08:42:48.175Z,14.20
2019-03-19T08:45:22.477Z,14.50
2019-03-19T08:47:51.118Z,14.70
2019-03-19T08:50:23.960Z,14.60
2019-03-19T08:52:54.991Z,14.90
2019-03-19T08:55:22.941Z,15.30
2019-03-19T08:57:51.589Z,15.50
2019-03-19T09:00:21.461Z,15.60
2019-03-19T09:02:50.061Z,15.90
2019-03-19T09:05:18.590Z,16.00
2019-03-19T09:07:47.162Z,16.30
2019-03-19T09:10:17.766Z,16.40
2019-03-19T09:12:48.528Z,16.40
2019-03-19T09:15:22.513Z,16.90
2019-03-19T09:17:51.177Z,16.80
2019-03-19T09:20:19.808Z,17.20
2019-03-19T09:22:48.570Z,17.60
2019-03-19T09:25:17.205Z,17.70
2019-03-19T09:27:45.979Z,17.80
2019-03-19T09:30:21.954Z,17.70
2019-03-19T09:32:50.474Z,17.80
2019-03-19T09:35:19.189Z,18.10
2019-03-19T09:37:57.856Z,17.90
2019-03-19T09:40:19.340Z,18.20
2019-03-19T09:42:48.061Z,18.70
2019-03-19T09:45:17.894Z,18.90
2019-03-19T09:47:47.296Z,19.30
2019-03-19T09:50:18.393Z,19.50
2019-03-19T09:52:47.105Z,19.40
2019-03-19T09:55:16.025Z,19.60
2019-03-19T09:57:44.703Z,19.80
2019-03-19T10:00:18.179Z,19.80
2019-03-19T10:02:47.098Z,19.80
2019-03-19T10:05:16.215Z,19.70
2019-03-19T10:07:44.868Z,19.80
2019-03-19T10:10:18.933Z,19.90
2019-03-19T10:12:47.842Z,19.80
2019-03-19T10:15:16.863Z,19.80
2019-03-19T10:17:45.640Z,19.80
2019-03-19T10:20:19.661Z,20.00
2019-03-19T10:22:48.320Z,20.30
2019-03-19T10:25:17.477Z,20.20
2019-03-19T10:27:46.143Z,20.00
2019-03-19T10:30:17.140Z,19.80
2019-03-19T10:32:46.149Z,20.00
2019-03-19T10:35:14.819Z,19.90
2019-03-19T10:37:43.574Z,20.10
2019-03-19T10:40:14.457Z,20.40
2019-03-19T10:42:43.120Z,20.60
2019-03-19T10:45:19.999Z,20.40
2019-03-19T10:47:48.770Z,20.40
2019-03-19T10:50:28.253Z,20.30
2019-03-19T10:52:56.900Z,20.50
2019-03-19T10:55:25.637Z,20.70
2019-03-19T10:57:54.344Z,20.90
2019-03-19T11:00:25.131Z,21.00
2019-03-19T11:02:54.337Z,20.90
2019-03-19T11:05:24.107Z,20.80
2019-03-19T11:07:52.940Z,20.80
2019-03-19T11:10:22.006Z,21.00
2019-03-19T11:12:50.825Z,21.30
2019-03-19T11:15:23.620Z,21.60
2019-03-19T11:17:52.322Z,22.10
2019-03-19T11:20:21.225Z,22.10
2019-03-19T11:22:49.980Z,21.70
2019-03-19T11:25:22.169Z,21.60
2019-03-19T11:27:50.802Z,20.80
2019-03-19T11:30:24.264Z,20.80
2019-03-19T11:32:52.900Z,20.80
2019-03-19T11:35:21.858Z,21.20
2019-03-19T11:37:50.500Z,21.40
2019-03-19T11:40:20.492Z,21.60
2019-03-19T11:42:49.707Z,21.50
2019-03-19T11:45:20.067Z,21.80
2019-03-19T11:47:48.797Z,22.10
2019-03-19T11:50:24.303Z,21.80
2019-03-19T11:52:53.248Z,22.30
2019-03-19T11:55:22.055Z,22.30
2019-03-19T11:57:51.056Z,21.70
2019-03-19T12:00:26.576Z,21.20
2019-03-19T12:02:55.460Z,21.10
2019-03-19T12:05:24.165Z,21.20
2019-03-19T12:07:52.825Z,21.30
2019-03-19T12:10:21.498Z,20.90
2019-03-19T12:12:50.119Z,20.50
2019-03-19T12:15:18.638Z,19.40
2019-03-19T12:17:48.841Z,18.90
2019-03-19T12:20:17.564Z,18.60
2019-03-19T12:22:46.184Z,18.40
2019-03-19T12:25:14.770Z,18.40
2019-03-19T12:27:43.668Z,18.70
2019-03-19T12:30:22.124Z,19.00
2019-03-19T12:32:45.791Z,19.00
2019-03-19T12:35:14.813Z,19.20
2019-03-19T12:37:43.407Z,19.50
2019-03-19T12:40:15.936Z,19.20
2019-03-19T12:42:44.510Z,18.80
2019-03-19T12:45:15.799Z,18.90
2019-03-19T12:47:43.573Z,19.20
2019-03-19T12:50:17.657Z,19.40
2019-03-19T12:52:46.215Z,19.50
2019-03-19T12:55:15.360Z,19.50
2019-03-19T12:57:43.991Z,19.80
2019-03-19T13:00:33.282Z,20.60
2019-03-19T13:02:53.484Z,21.00
2019-03-19T13:05:22.640Z,21.50
2019-03-19T13:07:51.345Z,21.60
2019-03-19T13:10:23.892Z,22.10
2019-03-19T13:12:52.473Z,22.30
2019-03-19T13:15:21.469Z,22.90
2019-03-19T13:17:50.375Z,23.20
2019-03-19T13:20:22.880Z,23.50
2019-03-19T13:22:51.504Z,23.60
2019-03-19T13:25:22.070Z,23.20
2019-03-19T13:27:50.929Z,23.30
2019-03-19T13:30:30.132Z,22.90
2019-03-19T13:32:58.793Z,22.90
2019-03-19T13:35:27.490Z,22.90
2019-03-19T13:37:56.050Z,23.10
2019-03-19T13:40:24.698Z,23.70
2019-03-19T13:42:53.399Z,23.70
2019-03-19T13:45:25.212Z,24.00
2019-03-19T13:47:53.791Z,22.70
2019-03-19T13:50:23.156Z,22.30
2019-03-19T13:52:51.790Z,22.70
2019-03-19T13:55:26.172Z,22.60
2019-03-19T13:57:54.736Z,22.40
2019-03-19T14:00:23.258Z,22.00
2019-03-19T14:02:51.812Z,22.30
2019-03-19T14:05:20.505Z,22.10
2019-03-19T14:07:49.169Z,22.30
2019-03-19T14:10:18.853Z,22.70
2019-03-19T14:12:48.236Z,22.60
2019-03-19T14:15:21.359Z,22.70
2019-03-19T14:17:49.860Z,22.90
2019-03-19T14:20:18.510Z,22.90
2019-03-19T14:22:47.219Z,23.00
2019-03-19T14:25:16.632Z,23.00
2019-03-19T14:27:45.364Z,22.60
2019-03-19T14:30:23.767Z,22.40
2019-03-19T14:32:52.428Z,22.30
2019-03-19T14:35:20.988Z,22.90
2019-03-19T14:37:49.610Z,23.50
2019-03-19T14:40:22.278Z,23.50
2019-03-19T14:42:50.898Z,22.90
2019-03-19T14:45:19.538Z,23.10
2019-03-19T14:47:48.364Z,23.50
2019-03-19T14:50:21.832Z,23.60
2019-03-19T14:52:50.476Z,23.80
2019-03-19T14:55:19.202Z,24.10
2019-03-19T14:57:47.750Z,24.40
2019-03-19T15:00:22.809Z,24.60
2019-03-19T15:02:51.429Z,23.50
2019-03-19T15:05:20.125Z,22.90
2019-03-19T15:07:48.730Z,23.50
2019-03-19T15:10:21.295Z,23.90
2019-03-19T15:12:49.853Z,24.10
2019-03-19T15:15:22.215Z,24.10
2019-03-19T15:17:50.863Z,24.30
2019-03-19T15:20:26.945Z,24.50
2019-03-19T15:22:55.434Z,24.30
2019-03-19T15:25:24.066Z,24.00
2019-03-19T15:27:53.106Z,23.80
2019-03-19T15:30:21.798Z,23.50
2019-03-19T15:32:50.423Z,23.30
2019-03-19T15:35:19.209Z,23.40
2019-03-19T15:37:47.899Z,23.40
2019-03-19T15:40:17.638Z,23.00
2019-03-19T15:42:46.301Z,22.10
2019-03-19T15:45:26.489Z,21.50
2019-03-19T15:47:55.073Z,21.90
2019-03-19T15:50:23.698Z,22.00
2019-03-19T15:52:52.330Z,22.30
2019-03-19T15:55:20.915Z,22.40
2019-03-19T15:57:49.610Z,21.90
2019-03-19T16:00:21.631Z,21.70
2019-03-19T16:02:50.268Z,21.70
2019-03-19T16:05:18.893Z,21.50
2019-03-19T16:07:47.606Z,21.30
2019-03-19T16:10:16.759Z,21.20
2019-03-19T16:12:45.395Z,20.90
2019-03-19T16:15:18.044Z,20.50
2019-03-19T16:17:46.704Z,20.20
2019-03-19T16:20:17.361Z,19.70
2019-03-19T16:22:45.947Z,19.80
2019-03-19T16:25:14.646Z,19.80
2019-03-19T16:27:43.281Z,19.30
2019-03-19T16:30:21.845Z,19.10
2019-03-19T16:32:50.415Z,18.80
2019-03-19T16:35:19.066Z,18.70
2019-03-19T16:37:47.754Z,18.60
2019-03-19T16:40:21.820Z,19.00
2019-03-19T16:42:50.558Z,18.70
2019-03-19T16:45:19.268Z,18.70
2019-03-19T16:47:47.902Z,18.60
2019-03-19T16:50:20.322Z,18.60
2019-03-19T16:52:49.184Z,18.50
2019-03-19T16:55:18.901Z,18.10
2019-03-19T16:57:47.491Z,17.50
2019-03-19T17:00:23.368Z,16.90
2019-03-19T17:02:52.048Z,16.30
2019-03-19T17:05:21.438Z,15.60
2019-03-19T17:07:50.087Z,15.00
2019-03-19T17:10:24.180Z,14.70
2019-03-19T17:12:52.753Z,14.30
2019-03-19T17:15:21.379Z,13.90
2019-03-19T17:17:50.110Z,13.50
2019-03-19T17:20:19.243Z,13.30
2019-03-19T17:22:48.108Z,13.20
2019-03-19T17:25:21.225Z,13.00
2019-03-19T17:27:49.850Z,12.80
2019-03-19T17:30:26.319Z,12.60
2019-03-19T17:32:54.973Z,12.40
2019-03-19T17:35:23.693Z,12.30
2019-03-19T17:37:52.261Z,12.10
2019-03-19T17:40:20.879Z,11.90
2019-03-19T17:42:49.541Z,11.80
2019-03-19T17:45:18.242Z,11.70
2019-03-19T17:47:46.971Z,11.50
2019-03-19T17:50:20.060Z,11.40
2019-03-19T17:52:50.800Z,11.20
2019-03-19T17:55:19.429Z,11.20
2019-03-19T17:57:48.133Z,11.00
2019-03-19T18:00:36.952Z,10.90
2019-03-19T18:03:05.574Z,10.80
2019-03-19T18:05:34.341Z,10.70
2019-03-19T18:08:03.064Z,10.60
2019-03-19T18:10:31.714Z,10.50
2019-03-19T18:13:00.299Z,10.40
2019-03-19T18:15:28.868Z,10.30
2019-03-19T18:17:57.421Z,10.20
2019-03-19T18:20:25.998Z,10.10
2019-03-19T18:22:54.560Z,10.00
2019-03-19T18:25:23.211Z,9.90
2019-03-19T18:27:51.845Z,9.90
2019-03-19T18:30:22.497Z,9.80
2019-03-19T18:32:51.135Z,9.80
2019-03-19T18:35:19.965Z,9.70
2019-03-19T18:37:48.728Z,9.70
2019-03-19T18:40:18.145Z,9.60
2019-03-19T18:42:47.119Z,9.50
2019-03-19T18:45:17.758Z,9.30
2019-03-19T18:47:46.378Z,9.20
2019-03-19T18:50:22.730Z,9.20
2019-03-19T18:52:51.308Z,9.10
2019-03-19T18:55:19.967Z,9.10
2019-03-19T18:57:48.526Z,9.10
2019-03-19T19:00:21.165Z,9.00
2019-03-19T19:02:51.018Z,8.80
2019-03-19T19:05:22.929Z,8.60
2019-03-19T19:07:51.587Z,8.50
2019-03-19T19:10:21.363Z,8.50
2019-03-19T19:12:50.291Z,8.50
2019-03-19T19:15:25.343Z,8.60
2019-03-19T19:17:53.960Z,8.60
2019-03-19T19:20:22.657Z,8.50
2019-03-19T19:22:51.257Z,8.50
2019-03-19T19:25:26.680Z,8.50
2019-03-19T19:27:55.464Z,8.50
2019-03-19T19:30:31.734Z,8.50
2019-03-19T19:33:02.506Z,8.50
2019-03-19T19:35:30.632Z,8.40
2019-03-19T19:37:59.316Z,8.30
2019-03-19T19:40:27.972Z,8.20
2019-03-19T19:42:56.745Z,8.10
2019-03-19T19:45:25.450Z,8.10
2019-03-19T19:47:54.115Z,8.00
2019-03-19T19:50:23.712Z,8.00
2019-03-19T19:52:52.308Z,7.90
2019-03-19T19:55:20.874Z,7.80
2019-03-19T19:57:49.508Z,7.60
2019-03-19T20:00:21.815Z,7.50
2019-03-19T20:02:50.565Z,7.50
2019-03-19T20:05:19.293Z,7.50
2019-03-19T20:07:48.001Z,7.40
2019-03-19T20:10:21.297Z,7.20
2019-03-19T20:12:49.976Z,7.20
2019-03-19T20:15:18.636Z,7.10
2019-03-19T20:17:47.267Z,7.10
2019-03-19T20:20:21.195Z,7.10
2019-03-19T20:22:49.840Z,7.00
2019-03-19T20:25:18.402Z,6.90
2019-03-19T20:27:47.159Z,6.90
2019-03-19T20:30:20.633Z,6.80
2019-03-19T20:32:49.328Z,6.70
2019-03-19T20:35:18.133Z,6.70
2019-03-19T20:37:46.825Z,6.70
2019-03-19T20:40:16.441Z,6.60
2019-03-19T20:42:45.152Z,6.60
2019-03-19T20:45:21.441Z,6.60
2019-03-19T20:47:50.060Z,6.60
2019-03-19T20:50:29.056Z,6.50
2019-03-19T20:52:57.688Z,6.50
2019-03-19T20:55:26.388Z,6.50
2019-03-19T20:57:55.039Z,6.50
2019-03-19T21:00:23.795Z,6.40
2019-03-19T21:02:52.445Z,6.40
2019-03-19T21:05:20.990Z,6.30
2019-03-19T21:07:49.562Z,6.30
2019-03-19T21:10:19.868Z,6.20
2019-03-19T21:12:48.672Z,6.10
2019-03-19T21:15:30.093Z,6.10
2019-03-19T21:17:58.967Z,6.10
2019-03-19T21:20:27.730Z,6.10
2019-03-19T21:22:56.449Z,6.00
2019-03-19T21:25:25.213Z,6.10
2019-03-19T21:27:54.097Z,5.90
2019-03-19T21:30:23.841Z,5.90
2019-03-19T21:32:52.534Z,5.90
2019-03-19T21:35:22.426Z,5.90
2019-03-19T21:37:51.378Z,5.80
2019-03-19T21:40:20.404Z,5.80
2019-03-19T21:42:49.193Z,5.70
2019-03-19T21:45:20.750Z,5.70
2019-03-19T21:47:48.696Z,5.70
2019-03-19T21:50:19.829Z,5.80
2019-03-19T21:52:48.815Z,5.70
2019-03-19T21:55:17.728Z,5.70
2019-03-19T21:57:46.418Z,5.70
2019-03-19T22:00:21.956Z,5.70
2019-03-19T22:02:50.724Z,5.70
2019-03-19T22:05:19.553Z,5.60
2019-03-19T22:07:48.753Z,5.60
2019-03-19T22:10:19.777Z,5.50
2019-03-19T22:12:49.477Z,5.50
2019-03-19T22:15:20.726Z,5.50
2019-03-19T22:17:49.430Z,5.50
2019-03-19T22:20:18.569Z,5.40
2019-03-19T22:22:47.501Z,5.30
2019-03-19T22:25:16.627Z,5.20
2019-03-19T22:27:45.484Z,5.20
2019-03-19T22:30:20.728Z,5.20
2019-03-19T22:32:49.444Z,5.20
2019-03-19T22:35:18.216Z,5.10
2019-03-19T22:37:47.015Z,5.20
2019-03-19T22:40:16.800Z,5.20
2019-03-19T22:42:45.756Z,5.10
2019-03-19T22:45:18.411Z,5.00
2019-03-19T22:47:47.360Z,5.00
2019-03-19T22:50:17.303Z,4.90
2019-03-19T22:52:46.214Z,4.90
2019-03-19T22:55:15.978Z,4.90
2019-03-19T22:57:45.011Z,5.00
2019-03-19T23:00:17.958Z,5.00
2019-03-19T23:02:46.747Z,5.00
2019-03-19T23:05:15.640Z,5.00
2019-03-19T23:07:44.313Z,4.90
2019-03-19T23:10:13.542Z,4.90
2019-03-19T23:12:42.540Z,4.90
2019-03-19T23:15:12.364Z,4.90
2019-03-19T23:17:42.128Z,4.80
2019-03-19T23:20:12.623Z,4.70
2019-03-19T23:22:41.453Z,4.60
2019-03-19T23:25:10.577Z,4.60
2019-03-19T23:27:39.373Z,4.50
2019-03-19T23:30:13.157Z,4.50
2019-03-19T23:32:41.803Z,4.50
2019-03-19T23:35:10.824Z,4.50
2019-03-19T23:37:41.042Z,4.50
2019-03-19T23:40:11.905Z,4.50
2019-03-19T23:42:40.458Z,4.60
2019-03-19T23:45:11.022Z,4.70
2019-03-19T23:47:39.585Z,4.70
2019-03-19T23:50:13.266Z,4.60
2019-03-19T23:52:41.825Z,4.60
2019-03-19T23:55:10.955Z,4.50
2019-03-19T23:57:39.699Z,4.50
